Time;durP1;ratioP1;P1;durP2;ratioP2;P2;SDS_P1;SDS_P2;PMS_P1;PMS_P2;Temp;Humidity;BMP_temperature;BMP_pressure;BME280_temperature;BME280_humidity;BME280_pressure;Samples;Min_cycle;Max_cycle;Signal;HPM_P1;HPM_P2
2021/05/20 00:01:19;;;;;;;4.33;3.90;;;;;;;;;;5041383;28;20436;-80
2021/05/20 00:03:46;;;;;;;5.80;3.90;;;;;;;;;;5036244;28;20445;-79
2021/05/20 00:06:12;;;;;;;4.77;3.57;;;;;;;;;;5029780;28;20457;-78
2021/05/20 00:08:39;;;;;;;5.83;4.33;;;;;;;;;;5030117;28;20449;-80
2021/05/20 00:11:06;;;;;;;4.90;3.97;;;;;;;;;;5030100;28;20503;-78
2021/05/20 00:13:33;;;;;;;4.70;3.97;;;;;;;;;;5039713;28;20449;-79
2021/05/20 00:15:59;;;;;;;5.13;4.47;;;;;;;;;;5051879;28;20488;-77
2021/05/20 00:18:27;;;;;;;6.50;4.50;;;;;;;;;;5051993;28;20494;-79
2021/05/20 00:20:54;;;;;;;5.30;4.63;;;;;;;;;;5052060;28;20445;-77
2021/05/20 00:23:21;;;;;;;6.47;4.80;;;;;;;;;;5042356;28;20772;-78
2021/05/20 00:25:47;;;;;;;6.40;4.40;;;;;;;;;;5038815;28;20480;-78
2021/05/20 00:28:14;;;;;;;7.10;5.00;;;;;;;;;;5049061;28;20461;-77
2021/05/20 00:30:41;;;;;;;5.70;4.70;;;;;;;;;;5049951;28;20476;-77
2021/05/20 00:33:08;;;;;;;6.17;5.07;;;;;;;;;;5050086;28;20495;-79
2021/05/20 00:35:35;;;;;;;9.17;5.07;;;;;;;;;;5049881;28;20542;-79
2021/05/20 00:38:02;;;;;;;5.93;4.97;;;;;;;;;;5037778;28;20449;-77
2021/05/20 00:40:29;;;;;;;5.57;4.77;;;;;;;;;;5033219;28;20449;-78
2021/05/20 00:42:55;;;;;;;5.13;4.63;;;;;;;;;;5029876;28;20454;-78
2021/05/20 00:45:24;;;;;;;5.70;4.47;;;;;;;;;;5029811;28;20462;-77
2021/05/20 00:47:51;;;;;;;8.13;5.40;;;;;;;;;;5030005;28;20923;-78
2021/05/20 00:50:18;;;;;;;9.27;5.20;;;;;;;;;;5046016;28;20464;-77
2021/05/20 00:52:45;;;;;;;11.40;5.27;;;;;;;;;;5051661;28;20856;-77
2021/05/20 00:55:13;;;;;;;5.20;4.70;;;;;;;;;;5051278;28;20510;-79
2021/05/20 00:57:43;;;;;;;8.73;5.67;;;;;;;;;;5055459;28;20906;-77
2021/05/20 01:00:11;;;;;;;5.80;5.20;;;;;;;;;;5041058;28;20434;-78
2021/05/20 01:02:39;;;;;;;5.67;5.17;;;;;;;;;;5037008;28;20935;-79
2021/05/20 01:05:06;;;;;;;6.70;4.90;;;;;;;;;;5033025;28;20476;-77
2021/05/20 01:07:33;;;;;;;9.70;6.57;;;;;;;;;;5032954;28;20441;-77
2021/05/20 01:10:01;;;;;;;7.90;6.00;;;;;;;;;;5033402;28;20455;-78
2021/05/20 01:12:28;;;;;;;9.27;7.23;;;;;;;;;;5049223;28;20456;-78
2021/05/20 01:14:55;;;;;;;10.27;6.70;;;;;;;;;;5054827;28;20977;-79
2021/05/20 01:17:22;;;;;;;8.53;5.87;;;;;;;;;;5054976;28;20445;-77
2021/05/20 01:19:48;;;;;;;10.13;6.70;;;;;;;;;;5054946;28;20441;-79
2021/05/20 01:22:16;;;;;;;8.60;7.10;;;;;;;;;;5041091;28;20446;-77
2021/05/20 01:24:43;;;;;;;8.93;7.20;;;;;;;;;;5045378;28;20977;-78
2021/05/20 01:27:10;;;;;;;11.87;8.40;;;;;;;;;;5052411;28;20480;-79
2021/05/20 01:29:39;;;;;;;9.90;7.13;;;;;;;;;;5052485;28;20452;-78
2021/05/20 01:32:06;;;;;;;8.47;6.87;;;;;;;;;;5052714;28;20794;-78
2021/05/20 01:34:34;;;;;;;8.40;6.70;;;;;;;;;;5053582;28;20895;-80
2021/05/20 01:37:01;;;;;;;10.30;7.10;;;;;;;;;;5054585;28;20535;-78
2021/05/20 01:39:29;;;;;;;9.23;8.07;;;;;;;;;;5054730;28;20522;-77
2021/05/20 01:41:55;;;;;;;11.07;8.70;;;;;;;;;;5054515;28;20452;-78
2021/05/20 01:44:23;;;;;;;13.17;8.60;;;;;;;;;;5041103;28;20458;-79
2021/05/20 01:46:50;;;;;;;10.20;7.97;;;;;;;;;;5044939;28;20448;-78
2021/05/20 01:49:16;;;;;;;9.60;8.60;;;;;;;;;;5052195;28;20460;-79
2021/05/20 01:51:44;;;;;;;11.37;9.63;;;;;;;;;;5052300;28;20449;-78
2021/05/20 01:54:10;;;;;;;9.90;8.30;;;;;;;;;;5051126;28;20465;-77
2021/05/20 01:56:38;;;;;;;10.70;8.83;;;;;;;;;;5053497;28;20856;-78
2021/05/20 01:59:05;;;;;;;11.70;9.47;;;;;;;;;;5054163;28;20446;-80
2021/05/20 02:01:32;;;;;;;10.80;8.57;;;;;;;;;;5054125;28;20441;-79
2021/05/20 02:03:59;;;;;;;9.77;8.30;;;;;;;;;;5053929;28;20817;-79
2021/05/20 02:06:26;;;;;;;10.03;8.73;;;;;;;;;;5041058;28;20846;-78
2021/05/20 02:08:53;;;;;;;9.57;8.60;;;;;;;;;;5044123;28;20806;-79
2021/05/20 02:11:20;;;;;;;9.83;8.37;;;;;;;;;;5051902;28;20453;-78
2021/05/20 02:13:48;;;;;;;10.37;8.50;;;;;;;;;;5051851;28;20460;-79
2021/05/20 02:16:14;;;;;;;10.40;9.10;;;;;;;;;;5051715;28;20479;-80
2021/05/20 02:18:41;;;;;;;9.80;8.00;;;;;;;;;;5052877;28;20465;-79
2021/05/20 02:21:08;;;;;;;10.07;8.57;;;;;;;;;;5053833;28;20449;-78
2021/05/20 02:23:35;;;;;;;9.70;7.80;;;;;;;;;;5053867;28;20441;-77
2021/05/20 02:26:02;;;;;;;9.20;7.80;;;;;;;;;;5053389;28;20481;-78
2021/05/20 02:28:29;;;;;;;10.27;8.37;;;;;;;;;;5041262;28;20438;-79
2021/05/20 02:30:56;;;;;;;10.10;8.70;;;;;;;;;;5036543;28;20802;-78
2021/05/20 02:33:23;;;;;;;11.67;9.10;;;;;;;;;;5031643;28;20445;-78
2021/05/20 02:35:50;;;;;;;13.47;9.30;;;;;;;;;;5031248;28;20985;-79
2021/05/20 02:38:17;;;;;;;23.20;9.67;;;;;;;;;;5031647;28;20450;-80
2021/05/20 02:40:44;;;;;;;13.60;9.90;;;;;;;;;;5043968;28;20453;-79
2021/05/20 02:43:10;;;;;;;10.70;9.60;;;;;;;;;;5053210;28;20447;-77
2021/05/20 02:45:37;;;;;;;13.23;9.10;;;;;;;;;;5053122;28;20468;-78
2021/05/20 02:48:05;;;;;;;11.40;8.40;;;;;;;;;;5053346;28;20472;-77
2021/05/20 02:50:32;;;;;;;10.70;8.60;;;;;;;;;;5041450;28;20449;-77
2021/05/20 02:52:59;;;;;;;11.87;10.23;;;;;;;;;;5036443;28;20445;-77
2021/05/20 02:55:27;;;;;;;10.20;8.80;;;;;;;;;;5030840;28;20592;-77
2021/05/20 02:57:55;;;;;;;12.00;9.30;;;;;;;;;;5030916;28;20532;-80
2021/05/20 03:00:26;;;;;;;10.70;9.33;;;;;;;;;;5031742;28;20446;-78
2021/05/20 03:02:53;;;;;;;17.90;10.90;;;;;;;;;;5043561;28;20511;-79
2021/05/20 03:05:21;;;;;;;15.43;9.70;;;;;;;;;;5052801;28;20465;-79
2021/05/20 03:07:48;;;;;;;15.10;11.60;;;;;;;;;;5052944;28;20456;-79
2021/05/20 03:10:15;;;;;;;11.47;9.60;;;;;;;;;;5052701;28;20494;-78
2021/05/20 03:12:42;;;;;;;12.03;10.63;;;;;;;;;;5041266;28;20445;-78
2021/05/20 03:15:09;;;;;;;14.27;11.03;;;;;;;;;;5041354;28;20533;-78
2021/05/20 03:17:36;;;;;;;13.17;10.83;;;;;;;;;;5050444;28;20449;-79
2021/05/20 03:20:03;;;;;;;14.80;11.20;;;;;;;;;;5049718;28;20444;-79
2021/05/20 03:22:31;;;;;;;11.77;10.10;;;;;;;;;;5050597;28;20456;-78
2021/05/20 03:24:58;;;;;;;14.73;11.83;;;;;;;;;;5050952;28;20834;-80
2021/05/20 03:27:24;;;;;;;17.80;11.43;;;;;;;;;;5051433;28;20441;-80
2021/05/20 03:29:51;;;;;;;13.53;12.13;;;;;;;;;;5052611;28;20441;-78
2021/05/20 03:32:18;;;;;;;15.93;13.17;;;;;;;;;;5052420;28;20441;-78
2021/05/20 03:34:45;;;;;;;17.43;12.07;;;;;;;;;;5041697;28;20504;-79
2021/05/20 03:37:12;;;;;;;15.47;13.13;;;;;;;;;;5040764;28;20460;-80
2021/05/20 03:39:39;;;;;;;15.97;14.03;;;;;;;;;;5049781;28;20543;-78
2021/05/20 03:42:06;;;;;;;17.47;13.70;;;;;;;;;;5050314;28;20771;-80
2021/05/20 03:44:33;;;;;;;18.10;15.20;;;;;;;;;;5050409;28;20461;-78
2021/05/20 03:47:00;;;;;;;17.57;13.97;;;;;;;;;;5051258;28;20616;-79
2021/05/20 03:49:26;;;;;;;17.60;13.53;;;;;;;;;;5052240;28;20458;-79
2021/05/20 03:51:53;;;;;;;16.70;12.83;;;;;;;;;;5052196;28;20457;-78
2021/05/20 03:54:20;;;;;;;17.73;13.57;;;;;;;;;;5052099;28;20472;-80
2021/05/20 03:56:48;;;;;;;17.83;14.70;;;;;;;;;;5042896;28;20524;-77
2021/05/20 03:59:15;;;;;;;18.67;14.13;;;;;;;;;;5036937;28;20438;-78
2021/05/20 04:01:42;;;;;;;20.20;15.27;;;;;;;;;;5029702;28;20966;-77
2021/05/20 04:04:08;;;;;;;18.90;14.40;;;;;;;;;;5029944;28;20966;-78
2021/05/20 04:06:35;;;;;;;23.20;16.97;;;;;;;;;;5028968;28;20438;-78
2021/05/20 04:09:02;;;;;;;20.60;16.00;;;;;;;;;;5038368;28;20445;-79
2021/05/20 04:11:29;;;;;;;18.20;14.80;;;;;;;;;;5052216;28;20452;-79
2021/05/20 04:13:57;;;;;;;23.63;17.80;;;;;;;;;;5052072;28;20849;-77
2021/05/20 04:16:25;;;;;;;23.93;16.97;;;;;;;;;;5051911;28;20480;-79
2021/05/20 04:18:52;;;;;;;24.07;18.50;;;;;;;;;;5042683;28;20507;-79
2021/05/20 04:21:19;;;;;;;24.87;19.40;;;;;;;;;;5039116;28;20436;-77
2021/05/20 04:23:46;;;;;;;28.60;19.00;;;;;;;;;;5049368;28;20957;-80
2021/05/20 04:26:18;;;;;;;24.13;19.57;;;;;;;;;;5049481;28;20472;-78
2021/05/20 04:28:45;;;;;;;25.47;18.93;;;;;;;;;;5048675;28;20449;-77
2021/05/20 04:31:12;;;;;;;27.40;20.27;;;;;;;;;;5053586;28;20461;-79
2021/05/20 04:33:40;;;;;;;29.67;21.20;;;;;;;;;;5055692;28;20445;-79
2021/05/20 04:36:07;;;;;;;33.40;23.93;;;;;;;;;;5055907;28;20533;-78
2021/05/20 04:38:34;;;;;;;31.83;22.43;;;;;;;;;;5055793;28;20446;-80
2021/05/20 04:41:01;;;;;;;30.27;23.10;;;;;;;;;;5046838;28;20492;-79
2021/05/20 04:43:28;;;;;;;34.63;23.93;;;;;;;;;;5040781;28;20845;-79
2021/05/20 04:45:54;;;;;;;33.40;23.80;;;;;;;;;;5033082;28;20461;-77
2021/05/20 04:48:22;;;;;;;32.27;23.73;;;;;;;;;;5033220;28;20507;-77
2021/05/20 04:50:49;;;;;;;36.93;25.80;;;;;;;;;;5033457;28;20779;-78
2021/05/20 04:53:16;;;;;;;31.97;25.00;;;;;;;;;;5040769;28;20454;-77
2021/05/20 04:55:42;;;;;;;33.63;23.60;;;;;;;;;;5055189;28;20532;-80
2021/05/20 04:58:09;;;;;;;35.53;25.60;;;;;;;;;;5055304;28;21002;-77
2021/05/20 05:00:36;;;;;;;35.03;24.37;;;;;;;;;;5055251;28;20440;-78
2021/05/20 05:03:03;;;;;;;32.47;24.90;;;;;;;;;;5046208;28;20450;-78
2021/05/20 05:05:31;;;;;;;32.33;24.70;;;;;;;;;;5040756;28;20486;-77
2021/05/20 05:07:57;;;;;;;32.23;24.30;;;;;;;;;;5033004;28;20458;-78
2021/05/20 05:10:25;;;;;;;32.47;23.30;;;;;;;;;;5033233;28;20442;-78
2021/05/20 05:12:52;;;;;;;34.87;25.50;;;;;;;;;;5033797;28;20449;-78
2021/05/20 05:15:19;;;;;;;30.40;23.10;;;;;;;;;;5039017;28;20981;-79
2021/05/20 05:17:46;;;;;;;36.17;25.23;;;;;;;;;;5048981;28;20552;-78
2021/05/20 05:20:13;;;;;;;34.17;24.90;;;;;;;;;;5039621;28;20445;-77
2021/05/20 05:22:41;;;;;;;36.83;24.03;;;;;;;;;;5037581;28;20471;-77
2021/05/20 05:25:08;;;;;;;34.17;24.93;;;;;;;;;;5032408;28;20978;-77
2021/05/20 05:27:35;;;;;;;36.07;25.30;;;;;;;;;;5045947;28;20445;-79
2021/05/20 05:30:01;;;;;;;32.87;24.80;;;;;;;;;;5043585;28;20442;-77
2021/05/20 05:32:28;;;;;;;35.27;25.73;;;;;;;;;;5052582;28;20491;-79
2021/05/20 05:34:55;;;;;;;35.47;26.57;;;;;;;;;;5054283;28;20507;-77
2021/05/20 05:37:22;;;;;;;36.80;26.60;;;;;;;;;;5054618;28;20441;-79
2021/05/20 05:39:50;;;;;;;39.43;28.77;;;;;;;;;;5053603;28;20447;-78
2021/05/20 05:42:16;;;;;;;37.63;26.47;;;;;;;;;;5043772;28;20460;-78
2021/05/20 05:44:43;;;;;;;40.80;28.50;;;;;;;;;;5041679;28;20946;-79
2021/05/20 05:47:10;;;;;;;37.80;31.13;;;;;;;;;;5041030;28;20472;-77
2021/05/20 05:49:41;;;;;;;40.57;29.33;;;;;;;;;;5047519;28;20506;-76
2021/05/20 05:52:09;;;;;;;35.50;25.50;;;;;;;;;;5041141;28;20545;-76
2021/05/20 05:54:36;;;;;;;40.10;27.53;;;;;;;;;;5044969;28;20484;-76
2021/05/20 05:57:04;;;;;;;40.90;28.30;;;;;;;;;;5053761;28;20870;-76
2021/05/20 05:59:30;;;;;;;40.90;28.60;;;;;;;;;;5053975;28;20444;-78
2021/05/20 06:01:59;;;;;;;37.27;28.07;;;;;;;;;;5050415;28;20453;-76
2021/05/20 06:04:25;;;;;;;39.53;29.20;;;;;;;;;;5046529;28;20544;-77
2021/05/20 06:06:52;;;;;;;37.43;27.30;;;;;;;;;;5039528;28;20450;-76
2021/05/20 06:09:19;;;;;;;38.23;25.50;;;;;;;;;;5036295;28;20442;-77
2021/05/20 06:11:46;;;;;;;40.20;28.17;;;;;;;;;;5051785;28;20453;-78
2021/05/20 06:14:14;;;;;;;38.70;28.20;;;;;;;;;;5052261;28;20461;-76
2021/05/20 06:16:41;;;;;;;35.83;28.40;;;;;;;;;;5051458;28;20981;-76
2021/05/20 06:19:08;;;;;;;35.80;27.70;;;;;;;;;;5053121;28;20456;-76
2021/05/20 06:21:35;;;;;;;33.13;25.57;;;;;;;;;;5052825;28;20437;-78
2021/05/20 06:24:02;;;;;;;32.70;24.13;;;;;;;;;;5051633;28;20468;-77
2021/05/20 06:26:29;;;;;;;35.50;24.90;;;;;;;;;;5053088;28;20469;-75
2021/05/20 06:28:56;;;;;;;37.67;27.50;;;;;;;;;;5040079;28;20460;-77
2021/05/20 06:31:24;;;;;;;30.73;23.97;;;;;;;;;;5036065;28;20437;-78
2021/05/20 06:33:51;;;;;;;31.87;24.27;;;;;;;;;;5031491;28;20445;-75
2021/05/20 06:36:18;;;;;;;34.60;25.63;;;;;;;;;;5033426;28;20478;-78
2021/05/20 06:38:45;;;;;;;35.90;23.70;;;;;;;;;;5051838;28;20448;-77
2021/05/20 06:41:12;;;;;;;33.80;24.90;;;;;;;;;;5048879;28;20832;-81
2021/05/20 06:43:39;;;;;;;34.03;25.40;;;;;;;;;;5052818;28;20463;-80
2021/05/20 06:46:06;;;;;;;35.50;27.57;;;;;;;;;;5053512;28;20437;-79
2021/05/20 06:48:34;;;;;;;32.40;24.93;;;;;;;;;;5051876;28;20552;-79
2021/05/20 06:51:01;;;;;;;32.73;24.50;;;;;;;;;;5043651;28;20448;-80
2021/05/20 06:53:30;;;;;;;29.33;23.67;;;;;;;;;;5037701;28;20441;-80
2021/05/20 06:55:59;;;;;;;30.63;22.73;;;;;;;;;;5030733;28;20492;-79
2021/05/20 07:01:07;;;;;;;32.27;25.40;;;;;;;;;;5048541;28;20430;-77
2021/05/20 07:03:35;;;;;;;32.77;24.50;;;;;;;;;;5045717;28;20496;-79
2021/05/20 07:06:02;;;;;;;29.57;22.00;;;;;;;;;;5036281;28;20496;-77
2021/05/20 07:08:29;;;;;;;35.63;22.63;;;;;;;;;;5052156;28;20517;-79
2021/05/20 07:10:56;;;;;;;25.00;21.40;;;;;;;;;;5046081;28;20492;-80
2021/05/20 07:13:23;;;;;;;27.93;21.87;;;;;;;;;;5034268;28;20437;-79
2021/05/20 07:15:50;;;;;;;24.60;19.90;;;;;;;;;;5038614;28;20579;-76
2021/05/20 07:18:17;;;;;;;25.80;20.73;;;;;;;;;;5046779;28;20450;-79
2021/05/20 07:20:44;;;;;;;27.40;21.00;;;;;;;;;;5050138;28;20524;-80
2021/05/20 07:23:12;;;;;;;28.43;20.10;;;;;;;;;;5050634;28;20953;-79
2021/05/20 07:25:39;;;;;;;25.47;20.13;;;;;;;;;;5049203;28;20559;-78
2021/05/20 07:28:06;;;;;;;25.23;20.73;;;;;;;;;;5042432;28;20441;-78
2021/05/20 07:30:33;;;;;;;23.70;19.70;;;;;;;;;;5038915;28;20466;-78
2021/05/20 07:32:59;;;;;;;28.07;20.20;;;;;;;;;;5050336;28;20912;-79
2021/05/20 07:35:27;;;;;;;26.40;20.33;;;;;;;;;;5050366;28;20488;-78
2021/05/20 07:37:54;;;;;;;24.33;19.83;;;;;;;;;;5032852;28;20933;-80
2021/05/20 07:40:22;;;;;;;25.93;19.57;;;;;;;;;;5038628;28;20482;-79
2021/05/20 07:42:49;;;;;;;20.10;17.20;;;;;;;;;;5052497;28;20490;-78
2021/05/20 07:45:16;;;;;;;21.03;17.13;;;;;;;;;;5051278;28;20545;-78
2021/05/20 07:47:44;;;;;;;18.30;14.83;;;;;;;;;;5052340;28;20916;-78
2021/05/20 07:50:12;;;;;;;21.27;15.43;;;;;;;;;;5046431;28;20511;-79
2021/05/20 07:52:39;;;;;;;16.40;14.60;;;;;;;;;;5038377;28;20437;-77
2021/05/20 07:55:07;;;;;;;20.17;15.63;;;;;;;;;;5047139;28;20625;-79
2021/05/20 07:57:34;;;;;;;18.57;14.00;;;;;;;;;;5049993;28;20491;-78
2021/05/20 08:00:01;;;;;;;23.53;16.17;;;;;;;;;;5049546;28;20989;-79
2021/05/20 08:02:36;;;;;;;18.90;15.80;;;;;;;;;;5049685;28;20468;-78
2021/05/20 08:05:06;;;;;;;17.57;14.30;;;;;;;;;;5038992;28;20443;-78
2021/05/20 08:07:38;;;;;;;16.80;14.03;;;;;;;;;;5037902;28;20453;-77
2021/05/20 08:10:13;;;;;;;14.30;12.80;;;;;;;;;;5047999;28;20452;-78
2021/05/20 08:12:41;;;;;;;14.63;13.07;;;;;;;;;;5050337;28;20426;-79
2021/05/20 08:15:08;;;;;;;16.40;12.90;;;;;;;;;;5050458;28;21103;-77
2021/05/20 08:17:35;;;;;;;15.40;13.30;;;;;;;;;;5049508;28;20469;-77
2021/05/20 08:20:01;;;;;;;13.83;12.43;;;;;;;;;;5052375;28;20849;-77
2021/05/20 08:22:28;;;;;;;17.03;12.40;;;;;;;;;;5052257;28;20445;-79
2021/05/20 08:24:55;;;;;;;13.37;11.63;;;;;;;;;;5050820;28;20460;-78
2021/05/20 08:27:22;;;;;;;14.47;11.50;;;;;;;;;;5049310;28;20446;-79
2021/05/20 08:29:49;;;;;;;15.00;12.07;;;;;;;;;;5037924;28;20429;-79
2021/05/20 08:32:16;;;;;;;13.27;11.63;;;;;;;;;;5045698;28;20448;-79
2021/05/20 08:34:43;;;;;;;13.10;11.27;;;;;;;;;;5049419;28;20674;-78
2021/05/20 08:37:10;;;;;;;14.20;12.70;;;;;;;;;;5049743;28;20452;-78
2021/05/20 08:39:37;;;;;;;17.00;15.17;;;;;;;;;;5049991;28;20892;-78
2021/05/20 08:42:04;;;;;;;15.43;13.73;;;;;;;;;;5048846;28;20468;-78
2021/05/20 08:44:32;;;;;;;17.57;13.60;;;;;;;;;;5037669;28;20503;-79
2021/05/20 08:47:00;;;;;;;15.07;13.33;;;;;;;;;;5032682;28;20445;-78
2021/05/20 08:49:27;;;;;;;15.87;13.90;;;;;;;;;;5030081;28;20457;-77
2021/05/20 08:51:54;;;;;;;18.43;14.83;;;;;;;;;;5030198;28;20450;-77
2021/05/20 08:54:21;;;;;;;17.60;14.17;;;;;;;;;;5030585;28;20473;-77
2021/05/20 08:56:49;;;;;;;15.37;13.40;;;;;;;;;;5049799;28;20849;-79
2021/05/20 08:59:16;;;;;;;15.27;12.00;;;;;;;;;;5051016;28;20535;-77
2021/05/20 09:01:44;;;;;;;12.93;11.70;;;;;;;;;;5052418;28;20531;-78
2021/05/20 09:04:11;;;;;;;15.97;12.50;;;;;;;;;;5051284;28;20594;-77
2021/05/20 09:06:39;;;;;;;15.67;13.13;;;;;;;;;;5036228;28;20814;-78
2021/05/20 09:09:08;;;;;;;13.37;11.80;;;;;;;;;;5032416;28;20871;-79
2021/05/20 09:11:35;;;;;;;14.97;12.60;;;;;;;;;;5030358;28;20464;-79
2021/05/20 09:14:03;;;;;;;14.07;12.67;;;;;;;;;;5031279;28;20458;-79
2021/05/20 09:16:30;;;;;;;12.53;11.20;;;;;;;;;;5044492;28;20468;-78
2021/05/20 09:19:00;;;;;;;13.17;11.50;;;;;;;;;;5054408;28;20468;-80
2021/05/20 09:21:31;;;;;;;13.60;10.80;;;;;;;;;;5055722;28;20447;-80
2021/05/20 09:23:59;;;;;;;10.63;9.60;;;;;;;;;;5054690;28;20811;-79
2021/05/20 09:26:36;;;;;;;12.03;8.90;;;;;;;;;;5043917;28;20477;-81
2021/05/20 09:29:10;;;;;;;10.97;9.83;;;;;;;;;;5039226;28;20529;-78
2021/05/20 09:31:38;;;;;;;13.43;12.03;;;;;;;;;;5036747;28;20437;-78
2021/05/20 09:34:11;;;;;;;13.53;11.27;;;;;;;;;;5039792;28;20464;-80
2021/05/20 09:36:47;;;;;;;10.87;9.70;;;;;;;;;;5052897;28;20491;-79
2021/05/20 09:39:14;;;;;;;12.27;9.50;;;;;;;;;;5035682;28;20441;-79
2021/05/20 09:41:43;;;;;;;13.30;10.43;;;;;;;;;;5049433;28;20441;-82
2021/05/20 09:44:24;;;;;;;11.90;10.60;;;;;;;;;;5054511;28;20472;-81
2021/05/20 09:46:51;;;;;;;10.73;9.50;;;;;;;;;;5054406;28;20437;-78
2021/05/20 09:49:18;;;;;;;9.80;7.97;;;;;;;;;;5054133;28;20445;-77
2021/05/20 09:51:44;;;;;;;9.87;8.87;;;;;;;;;;5039983;28;20941;-80
2021/05/20 09:54:12;;;;;;;9.83;8.60;;;;;;;;;;5045723;28;20965;-77
2021/05/20 09:56:40;;;;;;;10.03;7.87;;;;;;;;;;5052175;28;20508;-80
2021/05/20 09:59:11;;;;;;;8.53;7.70;;;;;;;;;;5051075;28;20449;-78
2021/05/20 10:01:40;;;;;;;8.30;7.40;;;;;;;;;;5051267;28;20453;-77
2021/05/20 10:04:07;;;;;;;8.33;7.43;;;;;;;;;;5053617;28;20489;-78
2021/05/20 10:06:36;;;;;;;8.13;7.27;;;;;;;;;;5054092;28;20810;-77
2021/05/20 10:09:04;;;;;;;9.07;7.40;;;;;;;;;;5053716;28;20463;-79
2021/05/20 10:11:32;;;;;;;11.00;9.83;;;;;;;;;;5053778;28;20449;-77
2021/05/20 10:13:59;;;;;;;8.93;8.03;;;;;;;;;;5040639;28;20466;-78
2021/05/20 10:16:27;;;;;;;8.13;7.33;;;;;;;;;;5043111;28;20479;-78
2021/05/20 10:18:54;;;;;;;9.00;7.90;;;;;;;;;;5051809;28;20441;-80
2021/05/20 10:21:21;;;;;;;7.50;6.40;;;;;;;;;;5051325;28;20449;-79
2021/05/20 10:23:48;;;;;;;7.47;6.50;;;;;;;;;;5050368;28;20445;-78
2021/05/20 10:26:35;;;;;;;8.00;5.87;;;;;;;;;;5052423;28;20485;-78
2021/05/20 10:29:02;;;;;;;7.33;5.17;;;;;;;;;;5004802;28;20439;-78
2021/05/20 10:31:29;;;;;;;6.00;5.40;;;;;;;;;;4996964;28;20489;-76
2021/05/20 10:33:56;;;;;;;6.07;5.47;;;;;;;;;;5007398;28;20451;-76
2021/05/20 10:36:24;;;;;;;7.20;6.40;;;;;;;;;;5008775;28;20478;-76
2021/05/20 10:38:50;;;;;;;6.33;5.73;;;;;;;;;;4992965;28;20474;-75
2021/05/20 10:41:18;;;;;;;5.77;5.17;;;;;;;;;;5009593;28;20465;-76
2021/05/20 10:43:46;;;;;;;8.67;7.77;;;;;;;;;;5011534;28;20807;-76
2021/05/20 10:46:15;;;;;;;9.03;8.00;;;;;;;;;;5016620;28;20508;-75
2021/05/20 10:48:49;;;;;;;8.17;7.30;;;;;;;;;;5053647;28;20456;-75
2021/05/20 10:51:17;;;;;;;13.60;6.37;;;;;;;;;;5047541;28;20872;-76
2021/05/20 10:53:46;;;;;;;9.23;6.70;;;;;;;;;;5037676;28;20530;-77
2021/05/20 10:56:28;;;;;;;7.50;6.47;;;;;;;;;;5049516;28;20479;-76
2021/05/20 10:58:54;;;;;;;7.47;6.77;;;;;;;;;;5050230;28;20440;-76
2021/05/20 11:04:32;;;;;;;6.37;5.77;;;;;;;;;;5127827;27;20531;-76
2021/05/20 11:07:00;;;;;;;6.73;5.20;;;;;;;;;;5129394;27;20433;-77
2021/05/20 11:09:42;;;;;;;6.47;5.13;;;;;;;;;;5129511;27;20446;-77
2021/05/20 11:12:09;;;;;;;4.87;3.70;;;;;;;;;;5129822;27;20445;-78
2021/05/20 11:14:37;;;;;;;5.47;4.97;;;;;;;;;;5106930;27;20451;-77
2021/05/20 11:17:19;;;;;;;4.53;4.00;;;;;;;;;;5103709;28;20629;-77
2021/05/20 11:19:46;;;;;;;5.47;4.57;;;;;;;;;;5106029;28;20447;-77
2021/05/20 11:22:13;;;;;;;4.80;4.30;;;;;;;;;;5106298;28;20512;-78
2021/05/20 11:24:41;;;;;;;5.50;3.87;;;;;;;;;;5105990;28;20458;-82
2021/05/20 11:27:09;;;;;;;4.57;4.17;;;;;;;;;;5105795;28;20450;-82
2021/05/20 11:29:36;;;;;;;4.13;3.73;;;;;;;;;;5103210;28;21298;-79
2021/05/20 11:32:15;;;;;;;3.47;3.00;;;;;;;;;;5105588;28;20522;-77
2021/05/20 11:35:04;;;;;;;4.20;3.60;;;;;;;;;;5106124;28;20545;-77
2021/05/20 11:37:36;;;;;;;4.10;3.40;;;;;;;;;;5106597;28;20529;-77
2021/05/20 11:40:05;;;;;;;4.30;3.90;;;;;;;;;;5105897;28;20466;-79
2021/05/20 11:42:32;;;;;;;3.93;3.53;;;;;;;;;;5108617;28;20489;-81
2021/05/20 11:45:00;;;;;;;5.70;3.90;;;;;;;;;;5105886;28;21814;-80
2021/05/20 11:47:28;;;;;;;4.77;3.87;;;;;;;;;;5103029;28;20441;-77
2021/05/20 11:49:55;;;;;;;4.10;3.27;;;;;;;;;;5105424;28;20434;-79
2021/05/20 11:52:25;;;;;;;3.93;3.57;;;;;;;;;;5105776;28;20846;-78
2021/05/20 11:54:55;;;;;;;6.40;4.53;;;;;;;;;;5106317;28;20465;-77
2021/05/20 11:57:23;;;;;;;4.20;3.80;;;;;;;;;;5108989;28;20499;-80
2021/05/20 11:59:50;;;;;;;4.80;3.63;;;;;;;;;;5128734;27;20513;-79
2021/05/20 12:02:19;;;;;;;4.20;3.40;;;;;;;;;;5128269;27;20496;-77
2021/05/20 12:04:46;;;;;;;3.83;3.03;;;;;;;;;;5127526;27;21049;-78
2021/05/20 12:07:28;;;;;;;3.53;2.70;;;;;;;;;;5116813;28;20882;-79
2021/05/20 12:09:56;;;;;;;2.33;2.10;;;;;;;;;;5101321;28;20453;-79
2021/05/20 12:12:23;;;;;;;2.80;2.40;;;;;;;;;;5085221;28;20492;-75
2021/05/20 12:14:52;;;;;;;2.90;2.60;;;;;;;;;;5075939;28;21025;-76
2021/05/20 12:17:20;;;;;;;3.77;3.03;;;;;;;;;;5071849;28;20847;-76
2021/05/20 12:19:48;;;;;;;4.10;2.70;;;;;;;;;;5077380;28;20936;-77
2021/05/20 12:22:16;;;;;;;3.30;2.40;;;;;;;;;;5094593;28;20493;-78
2021/05/20 12:24:43;;;;;;;3.33;2.60;;;;;;;;;;5094135;28;20470;-78
2021/05/20 12:27:13;;;;;;;3.37;2.10;;;;;;;;;;5093060;28;20494;-75
2021/05/20 12:29:41;;;;;;;3.40;3.10;;;;;;;;;;5091190;28;20491;-78
2021/05/20 12:32:07;;;;;;;4.63;3.73;;;;;;;;;;5087120;28;20443;-78
2021/05/20 12:34:34;;;;;;;3.60;2.90;;;;;;;;;;5091121;28;21044;-77
2021/05/20 12:37:03;;;;;;;3.17;2.87;;;;;;;;;;5091603;28;20439;-78
2021/05/20 12:39:30;;;;;;;3.90;2.53;;;;;;;;;;5090485;28;20500;-79
2021/05/20 12:41:57;;;;;;;3.23;2.90;;;;;;;;;;5096066;28;20450;-78
2021/05/20 12:44:26;;;;;;;4.10;2.60;;;;;;;;;;5113914;28;20515;-77
2021/05/20 12:46:52;;;;;;;3.40;2.43;;;;;;;;;;5114218;28;20449;-77
2021/05/20 12:49:20;;;;;;;4.70;2.83;;;;;;;;;;5114183;28;20534;-76
2021/05/20 12:51:55;;;;;;;2.77;2.57;;;;;;;;;;5101484;28;20928;-78
2021/05/20 12:54:26;;;;;;;4.77;2.30;;;;;;;;;;5087734;28;20960;-79
2021/05/20 12:57:02;;;;;;;3.83;2.33;;;;;;;;;;5090934;28;20451;-79
2021/05/20 12:59:38;;;;;;;2.53;2.07;;;;;;;;;;5091261;28;21016;-79
2021/05/20 13:02:09;;;;;;;2.60;2.40;;;;;;;;;;5091322;28;20473;-78
2021/05/20 13:04:37;;;;;;;2.40;1.90;;;;;;;;;;5092035;28;20540;-76
2021/05/20 13:07:05;;;;;;;2.20;2.00;;;;;;;;;;5093303;28;20803;-76
2021/05/20 13:09:33;;;;;;;2.50;2.30;;;;;;;;;;5093225;28;20851;-77
2021/05/20 13:12:01;;;;;;;4.00;1.90;;;;;;;;;;5093328;28;20438;-77
2021/05/20 13:14:30;;;;;;;6.17;2.30;;;;;;;;;;5089341;28;20447;-77
2021/05/20 13:17:05;;;;;;;3.13;2.23;;;;;;;;;;5088357;28;20427;-77
2021/05/20 13:20:07;;;;;;;2.40;2.20;;;;;;;;;;5089310;28;20496;-78
2021/05/20 13:22:33;;;;;;;2.30;2.10;;;;;;;;;;5089529;28;20980;-77
2021/05/20 13:25:02;;;;;;;3.30;2.27;;;;;;;;;;5089759;28;20596;-77
2021/05/20 13:27:30;;;;;;;2.10;1.90;;;;;;;;;;5105635;28;20449;-80
2021/05/20 13:29:59;;;;;;;2.60;1.90;;;;;;;;;;5112091;28;20438;-77
2021/05/20 13:32:34;;;;;;;2.27;1.90;;;;;;;;;;5113200;28;20492;-77
2021/05/20 13:35:01;;;;;;;2.67;1.67;;;;;;;;;;5112882;28;20568;-79
2021/05/20 13:37:27;;;;;;;2.03;1.83;;;;;;;;;;5086832;28;20432;-80
2021/05/20 13:39:54;;;;;;;3.73;1.77;;;;;;;;;;5088450;28;20493;-78
2021/05/20 13:42:21;;;;;;;2.33;1.40;;;;;;;;;;5090441;28;20505;-77
2021/05/20 13:44:50;;;;;;;1.93;1.60;;;;;;;;;;5090199;28;20456;-77
2021/05/20 13:47:17;;;;;;;1.70;1.60;;;;;;;;;;5086461;28;20490;-76
2021/05/20 13:49:45;;;;;;;2.20;1.70;;;;;;;;;;5083539;28;20463;-77
2021/05/20 13:52:16;;;;;;;2.43;1.90;;;;;;;;;;5085475;28;20501;-77
2021/05/20 13:54:43;;;;;;;1.80;1.70;;;;;;;;;;5069464;28;21026;-77
2021/05/20 13:57:10;;;;;;;2.23;1.73;;;;;;;;;;5068713;28;20444;-77
2021/05/20 13:59:37;;;;;;;2.20;2.00;;;;;;;;;;5068402;28;20448;-76
2021/05/20 14:02:07;;;;;;;1.70;1.60;;;;;;;;;;5075355;28;20455;-77
2021/05/20 14:04:37;;;;;;;1.83;1.73;;;;;;;;;;5092314;28;20546;-77
2021/05/20 14:07:07;;;;;;;2.30;2.10;;;;;;;;;;5091111;28;20534;-77
2021/05/20 14:09:34;;;;;;;2.43;1.90;;;;;;;;;;5092201;28;20442;-76
2021/05/20 14:12:01;;;;;;;1.93;1.73;;;;;;;;;;5088875;28;20427;-77
2021/05/20 14:14:28;;;;;;;2.53;1.90;;;;;;;;;;5084833;28;20467;-76
2021/05/20 14:16:55;;;;;;;2.10;1.73;;;;;;;;;;5089212;28;20549;-80
2021/05/20 14:19:22;;;;;;;2.70;1.73;;;;;;;;;;5089554;28;20520;-77
2021/05/20 14:21:49;;;;;;;3.23;1.50;;;;;;;;;;5089709;28;20442;-78
2021/05/20 14:24:16;;;;;;;1.73;1.63;;;;;;;;;;5095195;28;20547;-77
2021/05/20 14:26:43;;;;;;;2.30;1.73;;;;;;;;;;5112424;28;20445;-77
2021/05/20 14:29:10;;;;;;;2.20;1.60;;;;;;;;;;5112125;28;20450;-76
2021/05/20 14:31:37;;;;;;;1.60;1.50;;;;;;;;;;5112376;28;20961;-77
2021/05/20 14:34:04;;;;;;;2.73;1.87;;;;;;;;;;5098877;28;21033;-77
2021/05/20 14:36:31;;;;;;;1.60;1.50;;;;;;;;;;5085922;28;20431;-77
2021/05/20 14:38:58;;;;;;;2.30;1.50;;;;;;;;;;5088653;28;20431;-76
2021/05/20 14:41:25;;;;;;;1.60;1.50;;;;;;;;;;5089215;28;20499;-76